Naha Airport
ROAH : now visible

Airfield :











YOU CAN JOIN US ON...

 
LOGIN :

Register | Disclaimer

   EN    FR    IT 

 









Legend :    VFR   Marginal VFR   IFR   Intensive IFR   Very Intensive IFR
Visi :
Ceiling :
>= 8 km
>= 3000ft
5 to 8 km
1000 to 3000 ft
1500m to 5 km
500 to 1000 ft
800 to 1500m
200 to 500 ft
< 800m
< 200 ft
Symbols :   Thunderstorms  Fog  Heavy snow  Heavy precipitations  Wind > 20 kt






- Airport Elevation : 12 ft
- IATA code : OKA


ROAH - Naha

CURRENT METAR :
  • 191600Z 07005KT CAVOK 15/09 Q1025 RMK A3028

EXPIRED METARs :
  • 191530Z 09005KT CAVOK 16/09 Q1025 RMK A3028
  • 191500Z 09004KT CAVOK 15/09 Q1025 RMK A3029
  • 191430Z 09005KT CAVOK 16/09 Q1026
  • 191400Z 06004KT CAVOK 16/09 Q1026 RMK A3030
  • 191330Z 07003KT 030V090 CAVOK 16/09 Q1026 RMK A3031

TAF TAF ROAH
Valid from the 19 at 12:00 until the 20 at 18:00 UTC


191105Z 1912/2018 07005KT 9999 FEW030



MET'MAP, your aeronautical weather chart ! - Copyright ORBIFLY December 2007 - Disclaimer

ORBIFLY MET'MAP TEAM :

Programming & Development : Alexandra Zaïnal
Concept & original design : Baudouin d'Aumeries
Assistance for programming : Marc-Olivier Méhu
Technical & hardware support : Manuel Goepfert

Contact : metmap@orbifly.com




SOURCES & CREDITS :

   NOAA       Earth
Advisory